createdAt,value
2023-03-08T00:01:17.948Z,87.30
2023-03-08T00:03:44.967Z,87.80
2023-03-08T00:06:13.291Z,87.40
2023-03-08T00:08:40.093Z,87.80
2023-03-08T00:11:07.615Z,87.90
2023-03-08T00:13:34.716Z,88.30
2023-03-08T00:16:06.225Z,88.30
2023-03-08T00:18:34.352Z,88.70
2023-03-08T00:21:01.846Z,88.80
2023-03-08T00:23:28.508Z,88.90
2023-03-08T00:25:55.365Z,89.40
2023-03-08T00:28:22.287Z,89.70
2023-03-08T00:30:55.593Z,89.40
2023-03-08T00:33:22.269Z,89.30
2023-03-08T00:35:56.403Z,89.40
2023-03-08T00:38:23.110Z,89.60
2023-03-08T00:40:49.685Z,89.40
2023-03-08T00:43:16.388Z,89.70
2023-03-08T00:45:43.068Z,89.90
2023-03-08T00:48:09.804Z,89.70
2023-03-08T00:50:36.448Z,89.50
2023-03-08T00:53:03.134Z,89.50
2023-03-08T00:55:29.808Z,89.80
2023-03-08T00:57:56.410Z,89.60
2023-03-08T01:00:23.075Z,89.40
2023-03-08T01:02:49.687Z,89.50
2023-03-08T01:05:16.421Z,90.00
2023-03-08T01:07:43.102Z,90.00
2023-03-08T01:10:10.360Z,90.00
2023-03-08T01:12:37.113Z,90.20
2023-03-08T01:15:04.576Z,90.10
2023-03-08T01:17:31.558Z,90.30
2023-03-08T01:19:58.298Z,90.20
2023-03-08T01:22:24.934Z,90.20
2023-03-08T01:24:51.573Z,90.30
2023-03-08T01:27:18.221Z,90.60
2023-03-08T01:29:44.922Z,90.60
2023-03-08T01:32:11.649Z,90.60
2023-03-08T01:34:38.432Z,90.60
2023-03-08T01:37:05.608Z,90.70
2023-03-08T01:39:32.384Z,90.60
2023-03-08T01:41:59.073Z,90.70
2023-03-08T01:44:25.710Z,90.90
2023-03-08T01:46:52.804Z,90.90
2023-03-08T01:49:45.683Z,90.70
2023-03-08T01:52:14.411Z,90.60
2023-03-08T01:54:46.828Z,90.70
2023-03-08T01:57:13.463Z,90.80
2023-03-08T01:59:40.252Z,90.80
2023-03-08T02:02:06.968Z,90.80
2023-03-08T02:04:33.587Z,90.80
2023-03-08T02:07:00.236Z,91.00
2023-03-08T02:09:27.136Z,91.00
2023-03-08T02:11:55.056Z,91.20
2023-03-08T02:14:21.874Z,91.30
2023-03-08T02:16:48.559Z,91.50
2023-03-08T02:19:19.577Z,91.70
2023-03-08T02:21:46.210Z,91.80
2023-03-08T02:24:22.951Z,91.90
2023-03-08T02:26:51.130Z,92.00
2023-03-08T02:29:17.828Z,92.40
2023-03-08T02:31:44.503Z,92.50
2023-03-08T02:34:11.217Z,92.70
2023-03-08T02:36:37.842Z,92.60
2023-03-08T02:39:04.495Z,92.70
2023-03-08T02:41:31.198Z,92.80
2023-03-08T02:43:57.901Z,92.90
2023-03-08T02:46:24.544Z,92.90
2023-03-08T02:48:52.866Z,93.00
2023-03-08T02:51:20.533Z,93.00
2023-03-08T02:53:47.221Z,93.00
2023-03-08T02:56:13.944Z,93.60
2023-03-08T02:58:40.671Z,93.80
2023-03-08T03:01:11.430Z,93.70
2023-03-08T03:03:38.014Z,94.10
2023-03-08T03:06:04.825Z,94.10
2023-03-08T03:08:31.515Z,94.30
2023-03-08T03:10:58.123Z,94.00
2023-03-08T03:13:24.808Z,94.50
2023-03-08T03:15:51.573Z,94.20
2023-03-08T03:18:18.299Z,94.40
2023-03-08T03:20:44.959Z,94.60
2023-03-08T03:23:11.635Z,94.60
2023-03-08T03:25:38.339Z,94.40
2023-03-08T03:28:05.081Z,94.40
2023-03-08T03:30:31.736Z,94.30
2023-03-08T03:32:58.439Z,94.30
2023-03-08T03:35:25.037Z,94.30
2023-03-08T03:37:51.745Z,94.10
2023-03-08T03:40:18.505Z,94.30
2023-03-08T03:42:45.178Z,94.50
2023-03-08T03:45:11.880Z,95.00
2023-03-08T03:47:38.666Z,95.00
2023-03-08T03:50:05.508Z,95.10
2023-03-08T03:52:32.167Z,94.70
2023-03-08T03:54:58.767Z,94.80
2023-03-08T03:57:25.446Z,94.90
2023-03-08T03:59:52.118Z,95.00
2023-03-08T04:02:18.812Z,95.20
2023-03-08T04:04:48.497Z,95.30
2023-03-08T04:07:15.289Z,95.60
2023-03-08T04:09:41.995Z,95.50
2023-03-08T04:12:08.710Z,95.70
2023-03-08T04:14:35.417Z,96.10
2023-03-08T04:17:02.100Z,96.20
2023-03-08T04:19:28.812Z,96.30
2023-03-08T04:21:55.489Z,97.20
2023-03-08T04:24:22.130Z,97.10
2023-03-08T04:26:48.807Z,96.70
2023-03-08T04:29:15.522Z,96.50
2023-03-08T04:31:42.264Z,97.10
2023-03-08T04:34:08.955Z,97.80
2023-03-08T04:36:36.591Z,97.80
2023-03-08T04:39:03.450Z,97.80
2023-03-08T04:41:30.079Z,97.90
2023-03-08T04:43:57.150Z,98.00
2023-03-08T04:46:24.968Z,98.00
2023-03-08T04:48:55.613Z,98.70
2023-03-08T04:51:23.466Z,98.80
2023-03-08T04:53:50.191Z,99.00
2023-03-08T04:56:17.179Z,99.00
2023-03-08T04:58:44.112Z,99.20
2023-03-08T05:01:10.813Z,98.80
2023-03-08T05:03:37.662Z,99.10
2023-03-08T05:06:05.148Z,99.50
2023-03-08T05:08:31.847Z,99.80
2023-03-08T05:11:00.899Z,99.60
2023-03-08T05:13:29.171Z,99.30
2023-03-08T05:15:56.125Z,99.20
2023-03-08T05:18:22.893Z,99.20
2023-03-08T05:20:57.175Z,99.20
2023-03-08T05:23:24.708Z,99.30
2023-03-08T05:25:52.232Z,99.30
2023-03-08T05:28:19.061Z,99.10
2023-03-08T05:30:45.662Z,99.20
2023-03-08T05:33:12.370Z,99.40
2023-03-08T05:35:38.988Z,99.20
2023-03-08T05:38:05.682Z,99.00
2023-03-08T05:40:32.375Z,98.80
2023-03-08T05:42:59.073Z,99.00
2023-03-08T05:45:26.727Z,99.10
2023-03-08T05:47:53.607Z,99.20
2023-03-08T05:50:20.356Z,99.70
2023-03-08T05:52:47.403Z,99.90
2023-03-08T05:55:14.145Z,99.90
2023-03-08T05:57:40.886Z,99.40
2023-03-08T06:00:08.006Z,99.30
2023-03-08T06:02:34.721Z,99.30
2023-03-08T06:05:01.366Z,99.30
2023-03-08T06:07:27.951Z,99.20
2023-03-08T06:09:55.827Z,99.20
2023-03-08T06:12:22.451Z,99.10
2023-03-08T06:14:49.116Z,98.80
2023-03-08T06:17:15.820Z,98.80
2023-03-08T06:19:42.501Z,98.70
2023-03-08T06:22:09.142Z,98.60
2023-03-08T06:24:35.788Z,98.30
2023-03-08T06:27:02.505Z,98.30
2023-03-08T06:29:29.152Z,98.40
2023-03-08T06:31:55.889Z,98.40
2023-03-08T06:34:22.597Z,98.30
2023-03-08T06:36:49.225Z,98.40
2023-03-08T06:39:15.884Z,98.20
2023-03-08T06:41:42.592Z,98.10
2023-03-08T06:44:09.309Z,98.10
2023-03-08T06:46:35.943Z,97.90
2023-03-08T06:49:03.286Z,97.80
2023-03-08T06:51:30.037Z,97.80
2023-03-08T06:53:56.682Z,97.50
2023-03-08T06:56:24.307Z,97.30
2023-03-08T06:58:50.972Z,97.30
2023-03-08T07:01:18.079Z,97.40
2023-03-08T07:03:45.545Z,97.10
2023-03-08T07:06:12.377Z,97.00
2023-03-08T07:08:42.027Z,97.10
2023-03-08T07:11:09.833Z,97.00
2023-03-08T07:13:37.009Z,97.00
2023-03-08T07:16:07.998Z,96.90
2023-03-08T07:18:34.798Z,97.10
2023-03-08T07:21:01.610Z,97.20
2023-03-08T07:23:28.327Z,97.10
2023-03-08T07:25:54.986Z,96.80
2023-03-08T07:28:21.649Z,96.40
2023-03-08T07:30:49.154Z,96.40
2023-03-08T07:33:16.359Z,95.80
2023-03-08T07:35:43.001Z,96.00
2023-03-08T07:38:11.380Z,96.20
2023-03-08T07:40:38.107Z,96.10
2023-03-08T07:43:04.884Z,96.40
2023-03-08T07:45:31.624Z,95.70
2023-03-08T07:47:59.025Z,95.40
2023-03-08T07:50:25.872Z,95.10
2023-03-08T07:52:52.450Z,94.60
2023-03-08T07:55:19.422Z,94.70
2023-03-08T07:57:46.044Z,94.20
2023-03-08T08:00:12.887Z,94.60
2023-03-08T08:02:39.721Z,94.80
2023-03-08T08:05:06.595Z,94.90
2023-03-08T08:07:33.371Z,94.80
2023-03-08T08:10:00.016Z,94.50
2023-03-08T08:12:26.735Z,94.30
2023-03-08T08:14:53.792Z,94.20
2023-03-08T08:17:21.033Z,94.30
2023-03-08T08:19:48.044Z,94.40
2023-03-08T08:22:14.792Z,94.40
2023-03-08T08:24:41.511Z,94.50
2023-03-08T08:27:08.266Z,94.70
2023-03-08T08:29:34.950Z,94.30
2023-03-08T08:32:02.721Z,94.00
2023-03-08T08:34:29.387Z,93.80
2023-03-08T08:36:56.646Z,93.80
2023-03-08T08:39:23.325Z,93.70
2023-03-08T08:41:50.412Z,93.70
2023-03-08T08:44:17.128Z,94.00
2023-03-08T08:46:43.842Z,93.90
2023-03-08T08:49:10.942Z,94.10
2023-03-08T08:51:37.803Z,94.20
2023-03-08T08:54:04.569Z,94.40
2023-03-08T08:56:31.536Z,94.40
2023-03-08T08:59:00.254Z,94.30
2023-03-08T09:01:28.476Z,94.20
2023-03-08T09:03:55.656Z,94.50
2023-03-08T09:06:23.740Z,94.70
2023-03-08T09:08:51.154Z,94.10
2023-03-08T09:11:17.895Z,94.70
2023-03-08T09:13:44.752Z,94.80
2023-03-08T09:16:18.998Z,94.60
2023-03-08T09:18:45.799Z,94.20
2023-03-08T09:21:12.592Z,94.80
2023-03-08T09:23:39.394Z,94.80
2023-03-08T09:26:06.295Z,94.60
2023-03-08T09:28:33.236Z,94.30
2023-03-08T09:31:00.100Z,94.20
2023-03-08T09:33:26.789Z,93.80
2023-03-08T09:36:01.224Z,93.60
2023-03-08T09:38:27.926Z,93.70
2023-03-08T09:40:57.593Z,94.00
2023-03-08T09:43:28.813Z,94.20
2023-03-08T09:45:55.811Z,94.70
2023-03-08T09:48:25.673Z,94.60
2023-03-08T09:50:53.528Z,94.90
2023-03-08T09:53:32.236Z,94.60
2023-03-08T09:56:09.173Z,95.20
2023-03-08T09:58:35.814Z,95.10
2023-03-08T10:01:21.652Z,95.60
2023-03-08T10:03:48.434Z,95.40
2023-03-08T10:06:19.523Z,95.70
2023-03-08T10:08:50.583Z,95.60
2023-03-08T10:11:40.624Z,95.60
2023-03-08T10:14:13.949Z,95.60
2023-03-08T10:16:45.869Z,95.70
2023-03-08T10:19:31.358Z,95.30
2023-03-08T10:21:59.142Z,95.60
2023-03-08T10:24:39.511Z,95.90
2023-03-08T10:27:16.826Z,95.70
2023-03-08T10:29:54.391Z,95.50
2023-03-08T10:32:21.545Z,95.60
2023-03-08T10:34:48.963Z,95.30
2023-03-08T10:37:15.749Z,95.30
2023-03-08T10:39:54.822Z,95.60
2023-03-08T10:42:22.704Z,95.80
2023-03-08T10:45:12.586Z,95.60
2023-03-08T10:47:39.327Z,95.70
2023-03-08T10:50:18.052Z,95.90
2023-03-08T10:52:45.809Z,96.20
2023-03-08T10:55:14.054Z,96.70
2023-03-08T10:58:01.418Z,96.80
2023-03-08T11:00:42.266Z,96.80
2023-03-08T11:03:15.178Z,97.00
2023-03-08T11:05:51.476Z,97.10
2023-03-08T11:08:19.345Z,97.40
2023-03-08T11:10:46.002Z,97.20
2023-03-08T11:13:15.704Z,97.50
2023-03-08T11:15:44.023Z,97.50
2023-03-08T11:18:16.617Z,97.80
2023-03-08T11:20:48.148Z,98.20
2023-03-08T11:23:29.709Z,97.90
2023-03-08T11:26:03.593Z,98.20
2023-03-08T11:28:42.452Z,98.30
2023-03-08T11:31:18.229Z,97.60
2023-03-08T11:33:48.076Z,97.90
2023-03-08T11:36:38.776Z,97.40
2023-03-08T11:39:17.012Z,97.30
2023-03-08T11:41:56.114Z,97.20
2023-03-08T11:44:22.785Z,97.00
2023-03-08T11:46:58.645Z,97.10
2023-03-08T11:49:25.385Z,97.00
2023-03-08T11:51:58.086Z,96.40
2023-03-08T11:54:57.413Z,96.70
2023-03-08T11:57:25.223Z,96.90
2023-03-08T11:59:54.436Z,97.10
2023-03-08T12:02:28.299Z,97.60
2023-03-08T12:05:14.829Z,97.80
2023-03-08T12:07:55.715Z,97.50
2023-03-08T12:10:23.853Z,97.80
2023-03-08T12:12:50.496Z,97.90
2023-03-08T12:15:28.668Z,97.80
2023-03-08T12:18:06.382Z,97.70
2023-03-08T12:20:36.589Z,97.80
2023-03-08T12:23:11.462Z,97.60
2023-03-08T12:25:39.928Z,98.00
2023-03-08T12:28:12.623Z,97.70
2023-03-08T12:30:44.685Z,98.10
2023-03-08T12:33:13.684Z,97.90
2023-03-08T12:35:54.152Z,97.90
2023-03-08T12:38:20.886Z,97.90
2023-03-08T12:40:49.975Z,97.80
2023-03-08T12:43:19.561Z,97.90
2023-03-08T12:45:47.478Z,97.90
2023-03-08T12:48:17.709Z,98.00
2023-03-08T12:50:46.930Z,97.70
2023-03-08T12:53:32.376Z,97.50
2023-03-08T12:56:03.616Z,97.40
2023-03-08T12:58:31.586Z,97.10
2023-03-08T13:01:02.499Z,96.90
2023-03-08T13:03:41.866Z,96.90
2023-03-08T13:06:15.510Z,96.80
2023-03-08T13:08:48.877Z,96.60
2023-03-08T13:11:16.879Z,96.40
2023-03-08T13:13:56.620Z,96.50
2023-03-08T13:16:26.341Z,96.60
2023-03-08T13:19:01.982Z,96.50
2023-03-08T13:21:41.577Z,96.50
2023-03-08T13:24:17.348Z,96.90
2023-03-08T13:26:50.684Z,97.00
2023-03-08T13:29:18.964Z,96.60
2023-03-08T13:31:46.726Z,97.00
2023-03-08T13:34:28.039Z,96.80
2023-03-08T13:36:55.798Z,97.10
2023-03-08T13:39:24.505Z,97.40
2023-03-08T13:41:51.580Z,97.20
2023-03-08T13:44:21.264Z,97.40
2023-03-08T13:46:49.318Z,97.30
2023-03-08T13:49:17.452Z,97.30
2023-03-08T13:51:45.397Z,97.60
2023-03-08T13:54:16.471Z,97.60
2023-03-08T13:56:43.261Z,97.30
2023-03-08T13:59:17.700Z,97.30
2023-03-08T14:01:51.882Z,97.50
2023-03-08T14:04:29.640Z,97.30
2023-03-08T14:06:57.744Z,97.20
2023-03-08T14:09:25.810Z,97.40
2023-03-08T14:11:55.592Z,97.40
2023-03-08T14:14:32.702Z,97.60
2023-03-08T14:16:59.966Z,97.40
2023-03-08T14:19:40.262Z,97.40
2023-03-08T14:22:09.915Z,97.10
2023-03-08T14:24:36.897Z,97.00
2023-03-08T14:27:23.684Z,97.20
2023-03-08T14:30:00.823Z,97.20
2023-03-08T14:32:31.562Z,97.30
2023-03-08T14:35:06.648Z,97.20
2023-03-08T14:37:34.896Z,97.00
2023-03-08T14:40:13.539Z,97.20
2023-03-08T14:42:51.156Z,97.30
2023-03-08T14:45:29.682Z,97.10
2023-03-08T14:48:00.463Z,97.10
2023-03-08T14:50:35.981Z,97.30
2023-03-08T14:53:03.070Z,97.30
2023-03-08T14:55:35.479Z,97.10
2023-03-08T14:58:03.429Z,97.30
2023-03-08T15:00:30.832Z,97.40
2023-03-08T15:02:58.161Z,97.60
2023-03-08T15:05:29.102Z,97.40
2023-03-08T15:07:57.063Z,97.80
2023-03-08T15:10:34.102Z,97.70
2023-03-08T15:13:00.895Z,97.70
2023-03-08T15:15:27.800Z,97.80
2023-03-08T15:17:54.490Z,97.60
2023-03-08T15:20:22.295Z,97.80
2023-03-08T15:22:51.087Z,97.90
2023-03-08T15:25:28.627Z,98.00
2023-03-08T15:27:55.421Z,98.30
2023-03-08T15:30:26.499Z,98.10
2023-03-08T15:32:53.346Z,98.20
2023-03-08T15:35:20.414Z,98.50
2023-03-08T15:37:47.538Z,98.60
2023-03-08T15:40:14.822Z,98.50
2023-03-08T15:42:41.493Z,98.60
2023-03-08T15:45:08.932Z,98.80
2023-03-08T15:47:35.581Z,98.70
2023-03-08T15:50:02.424Z,98.80
2023-03-08T15:52:30.888Z,98.80
2023-03-08T15:54:57.975Z,99.00
2023-03-08T15:57:24.788Z,99.00
2023-03-08T15:59:51.815Z,98.90
2023-03-08T16:02:19.489Z,98.80
2023-03-08T16:04:48.115Z,98.90
2023-03-08T16:07:19.111Z,98.90
2023-03-08T16:09:46.501Z,98.80
2023-03-08T16:12:14.410Z,98.90
2023-03-08T16:14:46.292Z,98.80
2023-03-08T16:17:15.089Z,98.80
2023-03-08T16:19:43.606Z,99.00
2023-03-08T16:22:10.667Z,99.20
2023-03-08T16:24:37.405Z,99.30
2023-03-08T16:27:04.589Z,99.30
2023-03-08T16:29:32.287Z,99.10
2023-03-08T16:31:59.458Z,99.20
2023-03-08T16:34:26.719Z,99.20
2023-03-08T16:36:53.909Z,99.40
2023-03-08T16:39:20.894Z,99.40
2023-03-08T16:41:47.724Z,99.20
2023-03-08T16:44:18.968Z,99.40
2023-03-08T16:46:45.696Z,99.50
2023-03-08T16:49:12.493Z,99.60
2023-03-08T16:51:39.369Z,99.60
2023-03-08T16:54:06.045Z,99.80
2023-03-08T16:56:32.802Z,99.90
2023-03-08T16:59:00.109Z,99.90
2023-03-08T17:01:26.996Z,99.90
2023-03-08T17:03:54.946Z,99.90
2023-03-08T17:06:22.774Z,99.90
2023-03-08T17:08:49.458Z,99.90
2023-03-08T17:11:17.630Z,99.90
2023-03-08T17:13:46.992Z,99.90
2023-03-08T17:16:13.808Z,99.90
2023-03-08T17:18:40.524Z,99.90
2023-03-08T17:21:07.330Z,99.90
2023-03-08T17:23:33.987Z,99.90
2023-03-08T17:26:02.878Z,99.90
2023-03-08T17:28:29.515Z,99.90
2023-03-08T17:30:56.184Z,99.90
2023-03-08T17:33:25.944Z,99.90
2023-03-08T17:35:53.776Z,99.90
2023-03-08T17:38:20.625Z,99.90
2023-03-08T17:40:47.568Z,99.90
2023-03-08T17:43:14.346Z,99.90
2023-03-08T17:45:41.052Z,99.90
2023-03-08T17:48:10.203Z,99.90
2023-03-08T17:50:37.144Z,99.90
2023-03-08T17:53:03.898Z,99.90
2023-03-08T17:55:30.660Z,99.90
2023-03-08T17:57:57.354Z,99.90
2023-03-08T18:00:24.711Z,99.90
2023-03-08T18:02:51.646Z,99.90
2023-03-08T18:05:18.352Z,99.90
2023-03-08T18:07:46.160Z,99.90
2023-03-08T18:10:12.898Z,99.90
2023-03-08T18:12:39.807Z,99.90
2023-03-08T18:15:07.069Z,99.90
2023-03-08T18:17:40.701Z,99.90
2023-03-08T18:20:09.586Z,99.90
2023-03-08T18:22:37.174Z,99.90
2023-03-08T18:25:04.762Z,99.90
2023-03-08T18:27:33.266Z,99.90
2023-03-08T18:29:59.990Z,99.90
2023-03-08T18:32:28.064Z,99.90
2023-03-08T18:34:54.788Z,99.90
2023-03-08T18:37:21.484Z,99.90
2023-03-08T18:39:52.381Z,99.90
2023-03-08T18:42:19.342Z,99.90
2023-03-08T18:44:46.041Z,99.90
2023-03-08T18:47:12.699Z,99.90
2023-03-08T18:49:39.583Z,99.90
2023-03-08T18:52:06.392Z,99.90
2023-03-08T18:54:33.687Z,99.90
2023-03-08T18:57:00.370Z,99.90
2023-03-08T18:59:28.911Z,99.90
2023-03-08T19:01:55.594Z,99.90
2023-03-08T19:04:22.294Z,99.90
2023-03-08T19:06:48.917Z,99.90
2023-03-08T19:09:17.112Z,99.90
2023-03-08T19:11:44.188Z,99.90
2023-03-08T19:14:14.276Z,99.90
2023-03-08T19:16:40.974Z,99.90
2023-03-08T19:19:09.259Z,99.90
2023-03-08T19:21:37.796Z,99.90
2023-03-08T19:24:05.023Z,99.90
2023-03-08T19:26:38.744Z,99.90
2023-03-08T19:29:21.616Z,99.90
2023-03-08T19:31:51.473Z,99.90
2023-03-08T19:34:18.935Z,99.90
2023-03-08T19:36:46.076Z,99.90
2023-03-08T19:39:14.776Z,99.90
2023-03-08T19:41:41.828Z,99.90
2023-03-08T19:44:08.642Z,99.90
2023-03-08T19:46:35.985Z,99.90
2023-03-08T19:49:03.160Z,99.90
2023-03-08T19:51:29.805Z,99.90
2023-03-08T19:53:56.484Z,99.90
2023-03-08T19:56:24.906Z,99.90
2023-03-08T19:58:52.908Z,99.90
2023-03-08T20:01:20.253Z,99.90
2023-03-08T20:03:47.131Z,99.90
2023-03-08T20:06:20.966Z,99.90
2023-03-08T20:08:47.628Z,99.90
2023-03-08T20:11:14.290Z,99.90
2023-03-08T20:13:40.999Z,99.90
2023-03-08T20:16:07.660Z,99.90
2023-03-08T20:18:34.317Z,99.90
2023-03-08T20:21:03.036Z,99.90
2023-03-08T20:23:31.724Z,99.90
2023-03-08T20:25:59.045Z,99.90
2023-03-08T20:28:25.730Z,99.90
2023-03-08T20:30:52.876Z,99.90
2023-03-08T20:33:19.575Z,99.90
2023-03-08T20:35:51.944Z,99.90
2023-03-08T20:38:18.685Z,99.90
2023-03-08T20:40:45.981Z,99.90
2023-03-08T20:43:12.846Z,99.90
2023-03-08T20:45:40.395Z,99.90
2023-03-08T20:48:07.104Z,99.90
2023-03-08T20:50:33.767Z,99.90
2023-03-08T20:53:00.548Z,99.90
2023-03-08T20:55:27.293Z,99.90
2023-03-08T20:57:53.973Z,99.90
2023-03-08T21:00:20.786Z,99.90
2023-03-08T21:02:47.541Z,99.90
2023-03-08T21:05:14.280Z,99.90
2023-03-08T21:07:42.426Z,99.90
2023-03-08T21:10:09.438Z,99.90
2023-03-08T21:12:38.151Z,99.90
2023-03-08T21:15:06.158Z,99.90
2023-03-08T21:17:36.054Z,99.90
2023-03-08T21:20:02.943Z,99.90
2023-03-08T21:22:31.212Z,99.90
2023-03-08T21:24:57.878Z,99.90
2023-03-08T21:27:24.519Z,99.90
2023-03-08T21:29:51.392Z,99.90
2023-03-08T21:32:18.095Z,99.90
2023-03-08T21:34:44.708Z,99.90
2023-03-08T21:37:11.355Z,99.90
2023-03-08T21:39:38.000Z,99.90
2023-03-08T21:42:05.282Z,99.90
2023-03-08T21:44:32.177Z,99.90
2023-03-08T21:46:58.910Z,99.90
2023-03-08T21:49:26.690Z,99.90
2023-03-08T21:51:54.452Z,99.90
2023-03-08T21:54:21.825Z,99.90
2023-03-08T21:56:48.570Z,99.90
2023-03-08T21:59:16.780Z,99.90
2023-03-08T22:01:48.126Z,99.90
2023-03-08T22:04:15.488Z,99.90
2023-03-08T22:06:42.275Z,99.90
2023-03-08T22:09:09.901Z,99.90
2023-03-08T22:11:36.817Z,99.90
2023-03-08T22:14:03.458Z,99.90
2023-03-08T22:16:30.703Z,99.90
2023-03-08T22:19:01.490Z,99.90
2023-03-08T22:21:28.631Z,99.90
2023-03-08T22:23:56.413Z,99.90
2023-03-08T22:26:23.593Z,99.90
2023-03-08T22:28:50.629Z,99.90
2023-03-08T22:31:18.964Z,99.90
2023-03-08T22:33:46.001Z,99.90
2023-03-08T22:36:13.777Z,99.90
2023-03-08T22:38:40.699Z,99.90
2023-03-08T22:41:14.512Z,99.90
2023-03-08T22:43:41.606Z,99.90
2023-03-08T22:46:13.303Z,99.90
2023-03-08T22:48:40.037Z,99.90
2023-03-08T22:51:11.222Z,99.90
2023-03-08T22:53:38.536Z,99.90
2023-03-08T22:56:05.330Z,99.90
2023-03-08T22:58:32.006Z,99.90
2023-03-08T23:00:58.711Z,99.90
2023-03-08T23:03:25.841Z,99.90
2023-03-08T23:05:52.499Z,99.90
2023-03-08T23:08:19.195Z,99.90
2023-03-08T23:10:46.031Z,99.90
2023-03-08T23:13:21.667Z,99.90
2023-03-08T23:15:58.117Z,99.90
2023-03-08T23:18:24.836Z,99.90
2023-03-08T23:20:51.520Z,99.90
2023-03-08T23:23:18.174Z,99.90
2023-03-08T23:25:45.009Z,99.90
2023-03-08T23:28:11.720Z,99.90
2023-03-08T23:30:40.972Z,99.90
2023-03-08T23:33:07.628Z,99.90
2023-03-08T23:35:34.269Z,99.90
2023-03-08T23:38:01.631Z,99.90
2023-03-08T23:40:28.283Z,99.90
2023-03-08T23:42:54.940Z,99.90
2023-03-08T23:45:21.635Z,99.90
2023-03-08T23:47:48.286Z,99.90
2023-03-08T23:50:14.981Z,99.90
2023-03-08T23:52:41.592Z,99.90
2023-03-08T23:55:08.481Z,99.90
2023-03-08T23:57:35.096Z,99.90
